sensor_id;sensor_type;location;lat;lon;timestamp;temperature;humidity
54938;DHT22;52756;52.826;6.214;2024-03-22T00:01:54;10.80;89.40
54938;DHT22;52756;52.826;6.214;2024-03-22T00:04:20;10.70;89.40
54938;DHT22;52756;52.826;6.214;2024-03-22T00:06:47;10.70;89.50
54938;DHT22;52756;52.826;6.214;2024-03-22T00:09:14;10.70;89.60
54938;DHT22;52756;52.826;6.214;2024-03-22T00:11:40;11.00;89.80
54938;DHT22;52756;52.826;6.214;2024-03-22T00:14:07;10.70;89.70
54938;DHT22;52756;52.826;6.214;2024-03-22T00:16:33;10.70;89.70
54938;DHT22;52756;52.826;6.214;2024-03-22T00:18:58;10.70;89.80
54938;DHT22;52756;52.826;6.214;2024-03-22T00:21:24;10.80;89.90
54938;DHT22;52756;52.826;6.214;2024-03-22T00:23:49;10.70;89.90
54938;DHT22;52756;52.826;6.214;2024-03-22T00:26:15;10.70;89.90
54938;DHT22;52756;52.826;6.214;2024-03-22T00:28:41;10.80;90.00
54938;DHT22;52756;52.826;6.214;2024-03-22T00:31:07;10.80;90.00
54938;DHT22;52756;52.826;6.214;2024-03-22T00:33:33;10.80;90.00
54938;DHT22;52756;52.826;6.214;2024-03-22T00:35:59;11.40;90.40
54938;DHT22;52756;52.826;6.214;2024-03-22T00:38:24;10.80;90.10
54938;DHT22;52756;52.826;6.214;2024-03-22T00:40:50;10.80;90.10
54938;DHT22;52756;52.826;6.214;2024-03-22T00:43:15;10.80;90.10
54938;DHT22;52756;52.826;6.214;2024-03-22T00:45:41;10.80;90.10
54938;DHT22;52756;52.826;6.214;2024-03-22T00:48:07;10.80;90.10
54938;DHT22;52756;52.826;6.214;2024-03-22T00:50:32;11.30;90.30
54938;DHT22;52756;52.826;6.214;2024-03-22T00:52:58;10.80;90.20
54938;DHT22;52756;52.826;6.214;2024-03-22T00:55:24;10.90;90.20
54938;DHT22;52756;52.826;6.214;2024-03-22T00:57:50;10.90;90.30
54938;DHT22;52756;52.826;6.214;2024-03-22T01:00:16;10.90;90.30
54938;DHT22;52756;52.826;6.214;2024-03-22T01:02:42;10.90;90.40
54938;DHT22;52756;52.826;6.214;2024-03-22T01:05:08;11.10;90.50
54938;DHT22;52756;52.826;6.214;2024-03-22T01:07:33;10.90;90.40
54938;DHT22;52756;52.826;6.214;2024-03-22T01:10:00;10.90;90.50
54938;DHT22;52756;52.826;6.214;2024-03-22T01:12:26;10.90;90.50
54938;DHT22;52756;52.826;6.214;2024-03-22T01:14:51;10.90;90.50
54938;DHT22;52756;52.826;6.214;2024-03-22T01:17:17;10.90;90.50
54938;DHT22;52756;52.826;6.214;2024-03-22T01:19:42;11.00;90.50
54938;DHT22;52756;52.826;6.214;2024-03-22T01:22:08;11.00;90.50
54938;DHT22;52756;52.826;6.214;2024-03-22T01:24:34;11.00;90.60
54938;DHT22;52756;52.826;6.214;2024-03-22T01:26:59;11.00;90.60
54938;DHT22;52756;52.826;6.214;2024-03-22T01:29:25;11.00;90.60
54938;DHT22;52756;52.826;6.214;2024-03-22T01:31:50;11.10;90.70
54938;DHT22;52756;52.826;6.214;2024-03-22T01:34:16;11.00;90.70
54938;DHT22;52756;52.826;6.214;2024-03-22T01:36:42;11.00;90.70
54938;DHT22;52756;52.826;6.214;2024-03-22T01:39:07;11.00;90.70
54938;DHT22;52756;52.826;6.214;2024-03-22T01:41:33;11.00;90.70
54938;DHT22;52756;52.826;6.214;2024-03-22T01:51:21;11.00;90.80
54938;DHT22;52756;52.826;6.214;2024-03-22T01:53:46;11.00;90.90
54938;DHT22;52756;52.826;6.214;2024-03-22T01:56:13;11.00;90.90
54938;DHT22;52756;52.826;6.214;2024-03-22T01:58:39;11.00;91.00
54938;DHT22;52756;52.826;6.214;2024-03-22T02:01:06;11.00;91.00
54938;DHT22;52756;52.826;6.214;2024-03-22T02:03:31;11.10;91.10
54938;DHT22;52756;52.826;6.214;2024-03-22T02:05:57;11.10;91.10
54938;DHT22;52756;52.826;6.214;2024-03-22T02:08:22;11.10;91.10
54938;DHT22;52756;52.826;6.214;2024-03-22T02:10:48;11.10;91.10
54938;DHT22;52756;52.826;6.214;2024-03-22T02:13:17;11.00;91.10
54938;DHT22;52756;52.826;6.214;2024-03-22T02:15:42;11.20;91.20
54938;DHT22;52756;52.826;6.214;2024-03-22T02:18:08;11.10;91.20
54938;DHT22;52756;52.826;6.214;2024-03-22T02:20:33;11.10;91.20
54938;DHT22;52756;52.826;6.214;2024-03-22T02:22:59;11.70;91.40
54938;DHT22;52756;52.826;6.214;2024-03-22T02:25:24;11.10;91.30
54938;DHT22;52756;52.826;6.214;2024-03-22T02:27:50;11.10;91.30
54938;DHT22;52756;52.826;6.214;2024-03-22T02:30:17;11.10;91.30
54938;DHT22;52756;52.826;6.214;2024-03-22T02:32:42;11.10;91.40
54938;DHT22;52756;52.826;6.214;2024-03-22T02:35:08;11.10;91.40
54938;DHT22;52756;52.826;6.214;2024-03-22T02:37:34;11.20;91.50
54938;DHT22;52756;52.826;6.214;2024-03-22T02:40:00;11.20;91.50
54938;DHT22;52756;52.826;6.214;2024-03-22T02:42:25;11.10;91.50
54938;DHT22;52756;52.826;6.214;2024-03-22T02:44:51;11.40;91.60
54938;DHT22;52756;52.826;6.214;2024-03-22T02:47:17;11.20;91.60
54938;DHT22;52756;52.826;6.214;2024-03-22T02:49:43;11.20;91.60
54938;DHT22;52756;52.826;6.214;2024-03-22T02:52:08;11.20;91.60
54938;DHT22;52756;52.826;6.214;2024-03-22T02:54:34;11.20;91.60
54938;DHT22;52756;52.826;6.214;2024-03-22T02:56:59;11.20;91.60
54938;DHT22;52756;52.826;6.214;2024-03-22T02:59:27;11.20;91.60
54938;DHT22;52756;52.826;6.214;2024-03-22T03:01:53;11.20;91.60
54938;DHT22;52756;52.826;6.214;2024-03-22T03:04:19;11.70;91.80
54938;DHT22;52756;52.826;6.214;2024-03-22T03:06:44;11.20;91.80
54938;DHT22;52756;52.826;6.214;2024-03-22T03:09:13;11.30;91.80
54938;DHT22;52756;52.826;6.214;2024-03-22T03:11:39;11.80;92.00
54938;DHT22;52756;52.826;6.214;2024-03-22T03:14:05;11.30;91.90
54938;DHT22;52756;52.826;6.214;2024-03-22T03:16:31;11.30;91.90
54938;DHT22;52756;52.826;6.214;2024-03-22T03:18:56;11.90;92.10
54938;DHT22;52756;52.826;6.214;2024-03-22T03:21:22;11.30;92.00
54938;DHT22;52756;52.826;6.214;2024-03-22T03:23:48;11.30;92.00
54938;DHT22;52756;52.826;6.214;2024-03-22T03:26:13;11.30;92.00
54938;DHT22;52756;52.826;6.214;2024-03-22T03:28:39;11.30;92.00
54938;DHT22;52756;52.826;6.214;2024-03-22T03:31:04;11.30;92.00
54938;DHT22;52756;52.826;6.214;2024-03-22T03:33:30;11.30;92.10
54938;DHT22;52756;52.826;6.214;2024-03-22T03:35:56;11.30;92.10
54938;DHT22;52756;52.826;6.214;2024-03-22T03:38:21;11.30;92.10
54938;DHT22;52756;52.826;6.214;2024-03-22T03:40:48;11.30;92.10
54938;DHT22;52756;52.826;6.214;2024-03-22T03:43:14;11.30;92.10
54938;DHT22;52756;52.826;6.214;2024-03-22T03:45:40;11.30;92.10
54938;DHT22;52756;52.826;6.214;2024-03-22T03:48:06;11.30;92.10
54938;DHT22;52756;52.826;6.214;2024-03-22T03:50:31;11.30;92.10
54938;DHT22;52756;52.826;6.214;2024-03-22T03:52:57;11.30;92.10
54938;DHT22;52756;52.826;6.214;2024-03-22T03:55:23;11.30;92.10
54938;DHT22;52756;52.826;6.214;2024-03-22T03:57:52;11.30;92.10
54938;DHT22;52756;52.826;6.214;2024-03-22T04:00:19;11.30;92.10
54938;DHT22;52756;52.826;6.214;2024-03-22T04:02:45;11.30;92.10
54938;DHT22;52756;52.826;6.214;2024-03-22T04:05:10;11.30;92.10
54938;DHT22;52756;52.826;6.214;2024-03-22T04:07:36;11.50;92.20
54938;DHT22;52756;52.826;6.214;2024-03-22T04:10:02;11.30;92.10
54938;DHT22;52756;52.826;6.214;2024-03-22T04:12:28;11.30;92.10
54938;DHT22;52756;52.826;6.214;2024-03-22T04:14:54;11.60;92.20
54938;DHT22;52756;52.826;6.214;2024-03-22T04:17:20;11.30;92.10
54938;DHT22;52756;52.826;6.214;2024-03-22T04:19:45;11.30;92.10
54938;DHT22;52756;52.826;6.214;2024-03-22T04:22:11;11.30;92.10
54938;DHT22;52756;52.826;6.214;2024-03-22T04:24:36;11.60;92.20
54938;DHT22;52756;52.826;6.214;2024-03-22T04:27:02;11.30;92.10
54938;DHT22;52756;52.826;6.214;2024-03-22T04:29:28;11.30;92.10
54938;DHT22;52756;52.826;6.214;2024-03-22T04:31:53;11.30;92.10
54938;DHT22;52756;52.826;6.214;2024-03-22T04:34:19;11.30;92.10
54938;DHT22;52756;52.826;6.214;2024-03-22T04:36:44;11.30;92.10
54938;DHT22;52756;52.826;6.214;2024-03-22T04:39:10;11.30;92.10
54938;DHT22;52756;52.826;6.214;2024-03-22T04:41:37;11.30;92.10
54938;DHT22;52756;52.826;6.214;2024-03-22T04:44:03;11.30;92.10
54938;DHT22;52756;52.826;6.214;2024-03-22T04:46:29;11.30;92.00
54938;DHT22;52756;52.826;6.214;2024-03-22T04:48:54;11.40;92.10
54938;DHT22;52756;52.826;6.214;2024-03-22T04:51:20;11.30;92.00
54938;DHT22;52756;52.826;6.214;2024-03-22T04:53:46;11.30;92.00
54938;DHT22;52756;52.826;6.214;2024-03-22T04:56:11;11.30;92.00
54938;DHT22;52756;52.826;6.214;2024-03-22T04:58:37;11.30;92.00
54938;DHT22;52756;52.826;6.214;2024-03-22T05:01:02;11.30;92.00
54938;DHT22;52756;52.826;6.214;2024-03-22T05:03:28;11.40;92.00
54938;DHT22;52756;52.826;6.214;2024-03-22T05:05:53;11.40;92.00
54938;DHT22;52756;52.826;6.214;2024-03-22T05:08:20;11.30;91.90
54938;DHT22;52756;52.826;6.214;2024-03-22T05:10:45;11.30;91.90
54938;DHT22;52756;52.826;6.214;2024-03-22T05:13:11;11.30;91.90
54938;DHT22;52756;52.826;6.214;2024-03-22T05:15:37;11.30;91.80
54938;DHT22;52756;52.826;6.214;2024-03-22T05:18:02;11.30;91.80
54938;DHT22;52756;52.826;6.214;2024-03-22T05:20:28;11.30;91.80
54938;DHT22;52756;52.826;6.214;2024-03-22T05:22:54;11.40;91.80
54938;DHT22;52756;52.826;6.214;2024-03-22T05:25:20;11.30;91.80
54938;DHT22;52756;52.826;6.214;2024-03-22T05:27:46;11.30;91.80
54938;DHT22;52756;52.826;6.214;2024-03-22T05:30:12;11.70;91.90
54938;DHT22;52756;52.826;6.214;2024-03-22T05:32:38;11.30;91.80
54938;DHT22;52756;52.826;6.214;2024-03-22T05:35:05;11.30;91.80
54938;DHT22;52756;52.826;6.214;2024-03-22T05:37:31;11.30;91.90
54938;DHT22;52756;52.826;6.214;2024-03-22T05:39:57;11.30;91.90
54938;DHT22;52756;52.826;6.214;2024-03-22T05:42:22;11.30;91.90
54938;DHT22;52756;52.826;6.214;2024-03-22T05:44:48;11.40;92.00
54938;DHT22;52756;52.826;6.214;2024-03-22T05:47:14;11.30;91.90
54938;DHT22;52756;52.826;6.214;2024-03-22T05:49:39;11.40;91.90
54938;DHT22;52756;52.826;6.214;2024-03-22T05:52:05;11.30;91.90
54938;DHT22;52756;52.826;6.214;2024-03-22T05:54:31;11.30;91.90
54938;DHT22;52756;52.826;6.214;2024-03-22T05:56:56;11.30;92.00
54938;DHT22;52756;52.826;6.214;2024-03-22T05:59:22;11.20;91.90
54938;DHT22;52756;52.826;6.214;2024-03-22T06:01:48;11.20;92.00
54938;DHT22;52756;52.826;6.214;2024-03-22T06:04:13;11.30;92.00
54938;DHT22;52756;52.826;6.214;2024-03-22T06:06:39;11.30;92.00
54938;DHT22;52756;52.826;6.214;2024-03-22T06:09:04;11.20;92.00
54938;DHT22;52756;52.826;6.214;2024-03-22T06:11:35;11.20;92.00
54938;DHT22;52756;52.826;6.214;2024-03-22T06:14:00;11.20;92.00
54938;DHT22;52756;52.826;6.214;2024-03-22T06:16:26;11.20;92.20
54938;DHT22;52756;52.826;6.214;2024-03-22T06:18:52;11.20;92.00
54938;DHT22;52756;52.826;6.214;2024-03-22T06:21:18;11.20;92.10
54938;DHT22;52756;52.826;6.214;2024-03-22T06:23:51;11.20;92.00
54938;DHT22;52756;52.826;6.214;2024-03-22T06:26:17;11.20;92.10
54938;DHT22;52756;52.826;6.214;2024-03-22T06:28:43;11.20;92.10
54938;DHT22;52756;52.826;6.214;2024-03-22T06:31:09;11.20;92.10
54938;DHT22;52756;52.826;6.214;2024-03-22T06:33:34;11.20;92.10
54938;DHT22;52756;52.826;6.214;2024-03-22T06:36:00;11.20;92.10
54938;DHT22;52756;52.826;6.214;2024-03-22T06:38:26;11.80;92.20
54938;DHT22;52756;52.826;6.214;2024-03-22T06:40:52;11.60;92.20
54938;DHT22;52756;52.826;6.214;2024-03-22T06:43:17;11.20;92.10
54938;DHT22;52756;52.826;6.214;2024-03-22T06:45:43;11.20;92.10
54938;DHT22;52756;52.826;6.214;2024-03-22T06:48:08;11.20;92.10
54938;DHT22;52756;52.826;6.214;2024-03-22T06:50:34;11.20;92.10
54938;DHT22;52756;52.826;6.214;2024-03-22T06:53:00;11.70;92.20
54938;DHT22;52756;52.826;6.214;2024-03-22T06:55:25;11.30;92.00
54938;DHT22;52756;52.826;6.214;2024-03-22T06:57:51;11.20;92.00
54938;DHT22;52756;52.826;6.214;2024-03-22T07:00:18;11.20;92.00
54938;DHT22;52756;52.826;6.214;2024-03-22T07:02:44;11.20;92.00
54938;DHT22;52756;52.826;6.214;2024-03-22T07:05:10;11.90;92.20
54938;DHT22;52756;52.826;6.214;2024-03-22T07:07:37;11.20;92.00
54938;DHT22;52756;52.826;6.214;2024-03-22T07:10:03;11.20;92.00
54938;DHT22;52756;52.826;6.214;2024-03-22T07:12:31;11.20;92.00
54938;DHT22;52756;52.826;6.214;2024-03-22T07:14:58;11.20;92.00
54938;DHT22;52756;52.826;6.214;2024-03-22T07:17:24;11.20;91.90
54938;DHT22;52756;52.826;6.214;2024-03-22T07:19:51;11.20;91.90
54938;DHT22;52756;52.826;6.214;2024-03-22T07:22:17;11.90;92.10
54938;DHT22;52756;52.826;6.214;2024-03-22T07:24:43;11.60;92.00
54938;DHT22;52756;52.826;6.214;2024-03-22T07:27:08;11.20;91.90
54938;DHT22;52756;52.826;6.214;2024-03-22T07:29:34;11.20;91.90
54938;DHT22;52756;52.826;6.214;2024-03-22T07:31:59;11.30;91.90
54938;DHT22;52756;52.826;6.214;2024-03-22T07:34:25;11.30;91.90
54938;DHT22;52756;52.826;6.214;2024-03-22T07:36:50;11.30;91.90
54938;DHT22;52756;52.826;6.214;2024-03-22T07:39:16;11.30;91.90
54938;DHT22;52756;52.826;6.214;2024-03-22T07:41:42;11.30;91.90
54938;DHT22;52756;52.826;6.214;2024-03-22T07:44:07;11.70;92.00
54938;DHT22;52756;52.826;6.214;2024-03-22T07:46:33;11.20;91.80
54938;DHT22;52756;52.826;6.214;2024-03-22T07:48:58;11.30;91.90
54938;DHT22;52756;52.826;6.214;2024-03-22T07:51:25;11.40;91.90
54938;DHT22;52756;52.826;6.214;2024-03-22T07:53:50;11.30;91.90
54938;DHT22;52756;52.826;6.214;2024-03-22T07:56:17;11.30;91.90
54938;DHT22;52756;52.826;6.214;2024-03-22T07:58:43;11.30;92.00
54938;DHT22;52756;52.826;6.214;2024-03-22T08:01:09;11.30;91.80
54938;DHT22;52756;52.826;6.214;2024-03-22T08:03:34;11.30;91.80
54938;DHT22;52756;52.826;6.214;2024-03-22T08:06:00;11.30;92.00
54938;DHT22;52756;52.826;6.214;2024-03-22T08:08:25;11.30;91.80
54938;DHT22;52756;52.826;6.214;2024-03-22T08:10:51;11.80;91.90
54938;DHT22;52756;52.826;6.214;2024-03-22T08:13:17;11.70;91.90
54938;DHT22;52756;52.826;6.214;2024-03-22T08:15:42;11.30;91.90
54938;DHT22;52756;52.826;6.214;2024-03-22T08:18:11;11.30;91.90
54938;DHT22;52756;52.826;6.214;2024-03-22T08:20:36;11.30;91.90
54938;DHT22;52756;52.826;6.214;2024-03-22T08:23:04;11.30;91.90
54938;DHT22;52756;52.826;6.214;2024-03-22T08:25:30;11.30;92.00
54938;DHT22;52756;52.826;6.214;2024-03-22T08:27:56;11.30;92.10
54938;DHT22;52756;52.826;6.214;2024-03-22T08:30:22;11.30;92.20
54938;DHT22;52756;52.826;6.214;2024-03-22T08:32:48;11.30;92.20
54938;DHT22;52756;52.826;6.214;2024-03-22T08:35:14;11.30;92.20
54938;DHT22;52756;52.826;6.214;2024-03-22T08:37:39;11.30;92.30
54938;DHT22;52756;52.826;6.214;2024-03-22T08:40:05;11.30;92.30
54938;DHT22;52756;52.826;6.214;2024-03-22T08:42:32;11.30;92.30
54938;DHT22;52756;52.826;6.214;2024-03-22T08:44:57;11.50;92.40
54938;DHT22;52756;52.826;6.214;2024-03-22T08:47:23;11.30;92.40
54938;DHT22;52756;52.826;6.214;2024-03-22T08:49:49;11.30;92.40
54938;DHT22;52756;52.826;6.214;2024-03-22T08:52:15;11.40;92.40
54938;DHT22;52756;52.826;6.214;2024-03-22T08:54:40;11.30;92.40
54938;DHT22;52756;52.826;6.214;2024-03-22T08:57:06;11.30;92.40
54938;DHT22;52756;52.826;6.214;2024-03-22T08:59:32;11.60;92.50
54938;DHT22;52756;52.826;6.214;2024-03-22T09:01:58;11.30;92.40
54938;DHT22;52756;52.826;6.214;2024-03-22T09:04:24;11.40;92.50
54938;DHT22;52756;52.826;6.214;2024-03-22T09:06:50;11.40;92.50
54938;DHT22;52756;52.826;6.214;2024-03-22T09:09:16;11.30;92.50
54938;DHT22;52756;52.826;6.214;2024-03-22T09:11:42;11.40;92.50
54938;DHT22;52756;52.826;6.214;2024-03-22T09:14:08;11.40;92.50
54938;DHT22;52756;52.826;6.214;2024-03-22T09:16:33;11.40;92.60
54938;DHT22;52756;52.826;6.214;2024-03-22T09:18:59;11.40;92.60
54938;DHT22;52756;52.826;6.214;2024-03-22T09:21:25;11.40;92.60
54938;DHT22;52756;52.826;6.214;2024-03-22T09:23:51;11.40;92.60
54938;DHT22;52756;52.826;6.214;2024-03-22T09:26:16;11.40;92.60
54938;DHT22;52756;52.826;6.214;2024-03-22T09:28:42;11.40;92.60
54938;DHT22;52756;52.826;6.214;2024-03-22T09:31:08;11.40;92.60
54938;DHT22;52756;52.826;6.214;2024-03-22T09:33:36;11.40;92.70
54938;DHT22;52756;52.826;6.214;2024-03-22T09:36:02;11.40;92.70
54938;DHT22;52756;52.826;6.214;2024-03-22T09:38:28;11.40;92.70
54938;DHT22;52756;52.826;6.214;2024-03-22T09:40:54;11.40;92.70
54938;DHT22;52756;52.826;6.214;2024-03-22T09:43:23;11.40;92.70
54938;DHT22;52756;52.826;6.214;2024-03-22T09:45:52;11.40;92.80
54938;DHT22;52756;52.826;6.214;2024-03-22T09:48:22;11.40;92.80
54938;DHT22;52756;52.826;6.214;2024-03-22T09:50:49;11.40;92.80
54938;DHT22;52756;52.826;6.214;2024-03-22T09:53:21;11.40;92.80
54938;DHT22;52756;52.826;6.214;2024-03-22T09:55:48;11.90;93.00
54938;DHT22;52756;52.826;6.214;2024-03-22T09:58:14;11.50;92.90
54938;DHT22;52756;52.826;6.214;2024-03-22T10:00:42;11.40;92.90
54938;DHT22;52756;52.826;6.214;2024-03-22T10:03:08;11.40;92.90
54938;DHT22;52756;52.826;6.214;2024-03-22T10:05:34;11.40;92.90
54938;DHT22;52756;52.826;6.214;2024-03-22T10:08:00;11.40;92.90
54938;DHT22;52756;52.826;6.214;2024-03-22T10:10:27;12.00;93.10
54938;DHT22;52756;52.826;6.214;2024-03-22T10:12:52;11.50;92.90
54938;DHT22;52756;52.826;6.214;2024-03-22T10:15:20;12.20;93.20
54938;DHT22;52756;52.826;6.214;2024-03-22T10:17:48;11.50;93.00
54938;DHT22;52756;52.826;6.214;2024-03-22T10:20:14;11.80;93.10
54938;DHT22;52756;52.826;6.214;2024-03-22T10:22:56;11.50;93.00
54938;DHT22;52756;52.826;6.214;2024-03-22T10:25:23;11.50;93.00
54938;DHT22;52756;52.826;6.214;2024-03-22T10:27:49;11.50;93.00
54938;DHT22;52756;52.826;6.214;2024-03-22T10:30:16;11.50;93.00
54938;DHT22;52756;52.826;6.214;2024-03-22T10:32:46;11.50;93.00
54938;DHT22;52756;52.826;6.214;2024-03-22T10:35:13;11.50;93.00
54938;DHT22;52756;52.826;6.214;2024-03-22T10:37:39;11.60;93.00
54938;DHT22;52756;52.826;6.214;2024-03-22T10:40:05;11.60;93.00
54938;DHT22;52756;52.826;6.214;2024-03-22T10:42:39;11.60;93.00
54938;DHT22;52756;52.826;6.214;2024-03-22T10:45:05;11.60;93.00
54938;DHT22;52756;52.826;6.214;2024-03-22T10:47:32;11.60;93.00
54938;DHT22;52756;52.826;6.214;2024-03-22T10:50:07;11.60;93.00
54938;DHT22;52756;52.826;6.214;2024-03-22T10:52:58;11.70;93.00
54938;DHT22;52756;52.826;6.214;2024-03-22T10:55:37;11.70;92.90
54938;DHT22;52756;52.826;6.214;2024-03-22T10:58:03;11.70;93.00
54938;DHT22;52756;52.826;6.214;2024-03-22T11:00:31;11.70;93.00
54938;DHT22;52756;52.826;6.214;2024-03-22T11:02:57;11.70;93.00
54938;DHT22;52756;52.826;6.214;2024-03-22T11:05:23;11.70;92.90
54938;DHT22;52756;52.826;6.214;2024-03-22T11:08:05;11.80;93.00
54938;DHT22;52756;52.826;6.214;2024-03-22T11:10:33;11.80;93.00
54938;DHT22;52756;52.826;6.214;2024-03-22T11:13:07;11.80;93.00
54938;DHT22;52756;52.826;6.214;2024-03-22T11:15:33;11.80;93.00
54938;DHT22;52756;52.826;6.214;2024-03-22T11:17:59;11.80;92.90
54938;DHT22;52756;52.826;6.214;2024-03-22T11:20:26;11.80;92.90
54938;DHT22;52756;52.826;6.214;2024-03-22T11:22:52;11.80;92.90
54938;DHT22;52756;52.826;6.214;2024-03-22T11:25:19;11.70;92.90
54938;DHT22;52756;52.826;6.214;2024-03-22T11:27:48;11.70;93.10
54938;DHT22;52756;52.826;6.214;2024-03-22T11:30:15;11.70;93.10
54938;DHT22;52756;52.826;6.214;2024-03-22T11:32:41;12.40;93.30
54938;DHT22;52756;52.826;6.214;2024-03-22T11:35:11;11.70;93.10
54938;DHT22;52756;52.826;6.214;2024-03-22T11:37:41;11.70;93.10
54938;DHT22;52756;52.826;6.214;2024-03-22T11:40:09;11.60;93.10
54938;DHT22;52756;52.826;6.214;2024-03-22T11:42:36;11.60;93.10
54938;DHT22;52756;52.826;6.214;2024-03-22T11:45:03;11.60;93.10
54938;DHT22;52756;52.826;6.214;2024-03-22T11:47:29;11.60;93.10
54938;DHT22;52756;52.826;6.214;2024-03-22T11:49:55;11.50;93.10
54938;DHT22;52756;52.826;6.214;2024-03-22T11:52:28;12.40;93.30
54938;DHT22;52756;52.826;6.214;2024-03-22T11:54:53;11.50;93.10
54938;DHT22;52756;52.826;6.214;2024-03-22T11:57:23;11.50;93.10
54938;DHT22;52756;52.826;6.214;2024-03-22T11:59:49;12.00;93.30
54938;DHT22;52756;52.826;6.214;2024-03-22T12:02:15;11.40;93.10
54938;DHT22;52756;52.826;6.214;2024-03-22T12:04:48;11.40;93.20
54938;DHT22;52756;52.826;6.214;2024-03-22T12:07:14;11.40;93.20
54938;DHT22;52756;52.826;6.214;2024-03-22T12:09:42;11.40;93.10
54938;DHT22;52756;52.826;6.214;2024-03-22T12:12:11;11.40;93.10
54938;DHT22;52756;52.826;6.214;2024-03-22T12:14:37;11.40;93.00
54938;DHT22;52756;52.826;6.214;2024-03-22T12:17:04;11.40;92.90
54938;DHT22;52756;52.826;6.214;2024-03-22T12:19:30;11.30;92.80
54938;DHT22;52756;52.826;6.214;2024-03-22T12:21:59;11.30;92.60
54938;DHT22;52756;52.826;6.214;2024-03-22T12:24:25;11.30;92.60
54938;DHT22;52756;52.826;6.214;2024-03-22T12:26:53;11.30;92.60
54938;DHT22;52756;52.826;6.214;2024-03-22T12:29:19;11.30;92.50
54938;DHT22;52756;52.826;6.214;2024-03-22T12:31:46;11.30;92.50
54938;DHT22;52756;52.826;6.214;2024-03-22T12:34:13;11.20;92.40
54938;DHT22;52756;52.826;6.214;2024-03-22T12:36:39;11.20;92.50
54938;DHT22;52756;52.826;6.214;2024-03-22T12:39:05;11.20;92.50
54938;DHT22;52756;52.826;6.214;2024-03-22T12:41:31;11.20;92.40
54938;DHT22;52756;52.826;6.214;2024-03-22T12:43:57;11.20;92.40
54938;DHT22;52756;52.826;6.214;2024-03-22T12:46:23;11.20;92.60
54938;DHT22;52756;52.826;6.214;2024-03-22T12:48:49;11.20;92.50
54938;DHT22;52756;52.826;6.214;2024-03-22T12:51:15;11.20;92.40
54938;DHT22;52756;52.826;6.214;2024-03-22T12:53:41;11.20;92.40
54938;DHT22;52756;52.826;6.214;2024-03-22T12:56:07;11.20;92.50
54938;DHT22;52756;52.826;6.214;2024-03-22T12:58:33;11.20;92.50
54938;DHT22;52756;52.826;6.214;2024-03-22T13:01:00;11.20;92.60
54938;DHT22;52756;52.826;6.214;2024-03-22T13:03:27;11.20;92.60
54938;DHT22;52756;52.826;6.214;2024-03-22T13:05:52;12.00;92.80
54938;DHT22;52756;52.826;6.214;2024-03-22T13:08:19;11.80;92.80
54938;DHT22;52756;52.826;6.214;2024-03-22T13:10:48;11.30;92.70
54938;DHT22;52756;52.826;6.214;2024-03-22T13:13:14;11.30;92.80
54938;DHT22;52756;52.826;6.214;2024-03-22T13:15:43;11.30;92.70
54938;DHT22;52756;52.826;6.214;2024-03-22T13:18:09;11.90;92.90
54938;DHT22;52756;52.826;6.214;2024-03-22T13:20:37;11.30;92.70
54938;DHT22;52756;52.826;6.214;2024-03-22T13:23:03;11.40;92.80
54938;DHT22;52756;52.826;6.214;2024-03-22T13:25:29;11.40;92.60
54938;DHT22;52756;52.826;6.214;2024-03-22T13:27:55;11.40;92.60
54938;DHT22;52756;52.826;6.214;2024-03-22T13:30:20;11.40;92.60
54938;DHT22;52756;52.826;6.214;2024-03-22T13:32:47;11.40;92.70
54938;DHT22;52756;52.826;6.214;2024-03-22T13:35:13;11.50;92.70
54938;DHT22;52756;52.826;6.214;2024-03-22T13:37:40;11.50;92.70
54938;DHT22;52756;52.826;6.214;2024-03-22T13:40:06;11.50;92.60
54938;DHT22;52756;52.826;6.214;2024-03-22T13:42:32;11.50;92.60
54938;DHT22;52756;52.826;6.214;2024-03-22T13:44:58;11.60;92.60
54938;DHT22;52756;52.826;6.214;2024-03-22T13:47:24;11.70;92.60
54938;DHT22;52756;52.826;6.214;2024-03-22T13:49:50;11.60;92.60
54938;DHT22;52756;52.826;6.214;2024-03-22T13:52:15;11.60;92.50
54938;DHT22;52756;52.826;6.214;2024-03-22T13:54:41;12.20;92.50
54938;DHT22;52756;52.826;6.214;2024-03-22T13:57:06;11.60;92.20
54938;DHT22;52756;52.826;6.214;2024-03-22T13:59:32;11.60;92.00
54938;DHT22;52756;52.826;6.214;2024-03-22T14:01:59;11.50;91.90
54938;DHT22;52756;52.826;6.214;2024-03-22T14:04:25;11.50;91.90
54938;DHT22;52756;52.826;6.214;2024-03-22T14:06:52;11.50;91.90
54938;DHT22;52756;52.826;6.214;2024-03-22T14:09:18;12.00;92.00
54938;DHT22;52756;52.826;6.214;2024-03-22T14:11:44;11.50;91.80
54938;DHT22;52756;52.826;6.214;2024-03-22T14:14:10;11.50;91.80
54938;DHT22;52756;52.826;6.214;2024-03-22T14:16:37;11.40;91.80
54938;DHT22;52756;52.826;6.214;2024-03-22T14:19:03;11.50;91.80
54938;DHT22;52756;52.826;6.214;2024-03-22T14:21:29;11.40;91.80
54938;DHT22;52756;52.826;6.214;2024-03-22T14:23:55;11.50;91.90
54938;DHT22;52756;52.826;6.214;2024-03-22T14:26:21;11.50;91.90
54938;DHT22;52756;52.826;6.214;2024-03-22T14:28:48;11.50;91.80
54938;DHT22;52756;52.826;6.214;2024-03-22T14:31:15;11.50;91.80
54938;DHT22;52756;52.826;6.214;2024-03-22T14:33:41;11.80;91.80
54938;DHT22;52756;52.826;6.214;2024-03-22T14:36:07;11.50;91.70
54938;DHT22;52756;52.826;6.214;2024-03-22T14:38:35;11.50;91.70
54938;DHT22;52756;52.826;6.214;2024-03-22T14:41:01;11.50;91.70
54938;DHT22;52756;52.826;6.214;2024-03-22T14:43:28;11.50;91.70
54938;DHT22;52756;52.826;6.214;2024-03-22T14:45:54;11.60;91.70
54938;DHT22;52756;52.826;6.214;2024-03-22T14:48:23;11.60;91.50
54938;DHT22;52756;52.826;6.214;2024-03-22T14:50:50;12.00;91.30
54938;DHT22;52756;52.826;6.214;2024-03-22T14:53:20;11.50;90.80
54938;DHT22;52756;52.826;6.214;2024-03-22T14:55:53;11.70;90.60
54938;DHT22;52756;52.826;6.214;2024-03-22T14:58:20;11.50;90.30
54938;DHT22;52756;52.826;6.214;2024-03-22T15:00:53;11.40;90.10
54938;DHT22;52756;52.826;6.214;2024-03-22T15:03:19;11.90;90.00
54938;DHT22;52756;52.826;6.214;2024-03-22T15:05:44;11.30;89.80
54938;DHT22;52756;52.826;6.214;2024-03-22T15:08:10;11.30;88.90
54938;DHT22;52756;52.826;6.214;2024-03-22T15:10:37;11.30;88.30
54938;DHT22;52756;52.826;6.214;2024-03-22T15:13:03;11.30;87.90
54938;DHT22;52756;52.826;6.214;2024-03-22T15:15:33;11.20;87.50
54938;DHT22;52756;52.826;6.214;2024-03-22T15:17:59;11.20;87.80
54938;DHT22;52756;52.826;6.214;2024-03-22T15:20:24;11.60;88.70
54938;DHT22;52756;52.826;6.214;2024-03-22T15:22:53;11.20;88.20
54938;DHT22;52756;52.826;6.214;2024-03-22T15:25:18;11.20;88.00
54938;DHT22;52756;52.826;6.214;2024-03-22T15:27:44;11.20;87.90
54938;DHT22;52756;52.826;6.214;2024-03-22T15:30:10;11.30;87.70
54938;DHT22;52756;52.826;6.214;2024-03-22T15:32:36;11.30;87.50